Time;durP1;ratioP1;P1;durP2;ratioP2;P2;SDS_P1;SDS_P2;PMS_P1;PMS_P2;Temp;Humidity;BMP_temperature;BMP_pressure;BME280_temperature;BME280_humidity;BME280_pressure;Samples;Min_cycle;Max_cycle;Signal;HPM_P1;HPM_P2
2023/01/27 00:02:21;;;;;;;27.70;9.32;;;4.60;99.90;;;;;;5102085;27;20039;-66
2023/01/27 00:04:47;;;;;;;21.23;8.50;;;4.50;99.90;;;;;;5107689;27;20504;-70
2023/01/27 00:07:13;;;;;;;29.05;8.75;;;4.40;99.90;;;;;;5108929;28;20042;-70
2023/01/27 00:09:40;;;;;;;32.30;9.68;;;4.40;99.90;;;;;;5106351;27;20760;-68
2023/01/27 00:14:54;;;;;;;25.52;9.20;;;4.40;99.90;;;;;;5108333;27;20058;-68
2023/01/27 00:17:20;;;;;;;23.42;8.02;;;4.50;99.90;;;;;;5108857;27;20031;-69
2023/01/27 00:19:46;;;;;;;29.02;11.80;;;4.40;99.90;;;;;;5110226;27;20067;-67
2023/01/27 00:24:55;;;;;;;30.77;10.45;;;4.30;99.90;;;;;;5106566;27;20397;-71
2023/01/27 00:27:26;;;;;;;29.83;11.77;;;4.30;99.90;;;;;;5105299;27;20035;-72
2023/01/27 00:29:52;;;;;;;32.95;12.55;;;4.30;99.90;;;;;;5094042;27;20084;-67
2023/01/27 00:35:02;;;;;;;30.48;13.15;;;4.20;99.90;;;;;;5107497;27;20092;-68
2023/01/27 00:37:29;;;;;;;28.63;12.57;;;4.10;99.90;;;;;;5105133;27;20039;-70
2023/01/27 00:39:54;;;;;;;31.42;11.75;;;4.10;99.90;;;;;;5105116;27;20039;-69
2023/01/27 00:42:20;;;;;;;29.40;12.05;;;4.10;99.90;;;;;;5100385;27;20107;-69
2023/01/27 00:45:47;;;;;;;18.63;6.90;;;4.20;99.90;;;;;;5119345;27;20486;-69
2023/01/27 00:47:31;;;;;;;30.65;11.65;;;4.20;99.90;;;;;;5107341;28;20040;-69
2023/01/27 00:49:57;;;;;;;18.35;8.90;;;4.20;99.90;;;;;;5102718;27;20039;-66
2023/01/27 00:52:22;;;;;;;26.55;9.93;;;4.30;99.90;;;;;;5119927;27;20039;-67
2023/01/27 00:54:48;;;;;;;31.27;12.98;;;4.30;99.90;;;;;;5108793;28;20062;-66
2023/01/27 00:57:13;;;;;;;24.50;9.63;;;4.40;99.90;;;;;;5102996;27;20038;-66
2023/01/27 00:59:39;;;;;;;25.40;10.48;;;4.30;99.90;;;;;;5099673;28;20040;-67
2023/01/27 01:02:04;;;;;;;22.85;10.35;;;4.30;99.90;;;;;;5095314;28;20036;-67
2023/01/27 01:04:30;;;;;;;20.40;8.25;;;4.20;99.90;;;;;;5100803;27;20110;-66
2023/01/27 01:06:55;;;;;;;26.85;11.57;;;4.30;99.90;;;;;;5120356;27;20097;-68
2023/01/27 01:09:21;;;;;;;26.60;11.50;;;4.30;99.90;;;;;;5102874;28;20067;-66
2023/01/27 01:11:47;;;;;;;29.98;12.98;;;4.30;99.90;;;;;;5121637;27;20174;-70
2023/01/27 01:14:12;;;;;;;25.85;12.52;;;4.20;99.90;;;;;;5105370;28;20046;-69
2023/01/27 01:16:38;;;;;;;27.92;11.48;;;4.10;99.90;;;;;;5100854;27;20258;-70
2023/01/27 01:19:03;;;;;;;19.55;9.90;;;4.10;99.90;;;;;;5088764;28;20050;-66
2023/01/27 01:21:29;;;;;;;23.50;11.05;;;4.10;99.90;;;;;;5104280;28;20031;-68
2023/01/27 01:23:55;;;;;;;20.15;9.98;;;4.20;99.90;;;;;;5104320;28;20038;-66
2023/01/27 01:26:20;;;;;;;10.50;6.30;;;4.20;99.90;;;;;;5108074;28;20039;-67
2023/01/27 01:28:46;;;;;;;18.27;8.18;;;4.30;99.90;;;;;;5105300;28;20038;-67
2023/01/27 01:31:17;;;;;;;17.77;9.20;;;4.30;99.90;;;;;;5105750;28;20499;-68
2023/01/27 01:33:43;;;;;;;19.33;8.70;;;4.30;99.90;;;;;;5106615;28;20043;-70
2023/01/27 01:36:15;;;;;;;19.85;9.00;;;4.20;99.90;;;;;;5107010;28;20122;-70
2023/01/27 01:38:41;;;;;;;18.27;9.32;;;4.20;99.90;;;;;;5108783;28;20031;-67
2023/01/27 01:41:10;;;;;;;17.33;8.52;;;4.10;99.90;;;;;;5106193;28;20558;-68
2023/01/27 01:43:35;;;;;;;18.50;7.97;;;4.10;99.90;;;;;;5103415;28;20041;-69
2023/01/27 01:46:01;;;;;;;18.58;8.20;;;4.20;99.90;;;;;;5106167;28;20122;-70
2023/01/27 01:48:41;;;;;;;20.83;9.07;;;4.10;99.90;;;;;;5107101;28;20461;-71
2023/01/27 01:51:40;;;;;;;16.48;8.32;;;4.10;99.90;;;;;;5108149;28;20393;-70
2023/01/27 01:54:34;;;;;;;12.80;5.63;;;4.10;99.90;;;;;;5104471;28;20453;-68
2023/01/27 01:57:23;;;;;;;13.70;6.40;;;4.10;99.90;;;;;;5102116;27;20066;-69
2023/01/27 01:59:56;;;;;;;11.68;6.07;;;4.10;99.90;;;;;;5108235;28;20039;-70
2023/01/27 02:02:23;;;;;;;8.93;3.78;;;4.10;99.90;;;;;;5103023;28;20039;-69
2023/01/27 02:05:05;;;;;;;11.07;5.70;;;4.20;99.90;;;;;;5104462;28;20035;-66
2023/01/27 02:07:42;;;;;;;11.90;6.13;;;4.30;99.90;;;;;;5107003;28;20040;-72
2023/01/27 02:10:08;;;;;;;10.68;4.00;;;4.30;99.90;;;;;;5108691;27;20783;-69
2023/01/27 02:12:34;;;;;;;13.88;4.75;;;4.30;99.90;;;;;;5111440;27;20050;-70
2023/01/27 02:14:59;;;;;;;13.52;6.10;;;4.30;99.90;;;;;;5109934;27;20036;-69
2023/01/27 02:17:26;;;;;;;12.50;4.10;;;4.30;99.90;;;;;;5110561;27;20058;-69
2023/01/27 02:19:57;;;;;;;14.70;6.82;;;4.40;99.90;;;;;;5106486;27;20058;-71
2023/01/27 02:22:38;;;;;;;16.17;6.47;;;4.40;99.90;;;;;;5102350;27;20251;-71
2023/01/27 02:25:21;;;;;;;14.32;7.50;;;4.30;99.90;;;;;;5115456;27;20086;-69
2023/01/27 02:27:46;;;;;;;12.30;5.68;;;4.40;99.90;;;;;;5108040;27;20059;-69
2023/01/27 02:30:12;;;;;;;14.57;6.50;;;4.40;99.90;;;;;;5112040;27;20477;-71
2023/01/27 02:32:37;;;;;;;14.23;6.82;;;4.40;99.90;;;;;;5107876;27;20035;-69
2023/01/27 02:35:06;;;;;;;16.33;8.02;;;4.40;99.90;;;;;;5113587;27;20119;-69
2023/01/27 02:37:32;;;;;;;11.43;5.50;;;4.40;99.90;;;;;;5106817;27;20042;-68
2023/01/27 02:39:59;;;;;;;16.63;7.53;;;4.40;99.90;;;;;;5116341;27;20050;-71
2023/01/27 02:42:25;;;;;;;16.13;7.43;;;4.40;99.90;;;;;;5111551;27;20127;-70
2023/01/27 02:44:50;;;;;;;15.68;6.93;;;4.40;99.90;;;;;;5110291;27;20180;-71
2023/01/27 02:47:16;;;;;;;16.88;7.65;;;4.40;99.90;;;;;;5121761;27;20733;-70
2023/01/27 02:49:41;;;;;;;16.58;7.38;;;4.30;99.90;;;;;;5122174;27;20443;-71
2023/01/27 02:52:07;;;;;;;20.08;7.65;;;4.30;99.90;;;;;;5104887;27;20042;-67
2023/01/27 02:54:33;;;;;;;14.18;6.35;;;4.30;99.90;;;;;;5110726;27;20039;-70
2023/01/27 02:56:58;;;;;;;10.32;4.50;;;4.30;99.90;;;;;;5106958;27;20392;-70
2023/01/27 02:59:24;;;;;;;10.60;4.63;;;4.40;99.90;;;;;;5110941;27;20050;-69
2023/01/27 03:01:50;;;;;;;13.35;5.90;;;4.40;99.90;;;;;;5093655;27;20039;-70
2023/01/27 03:04:15;;;;;;;11.98;5.25;;;4.40;99.90;;;;;;5108920;27;20051;-70
2023/01/27 03:06:41;;;;;;;8.68;3.40;;;4.40;99.90;;;;;;5109857;27;20031;-69
2023/01/27 03:09:06;;;;;;;12.07;5.03;;;4.40;99.90;;;;;;5102507;27;20531;-69
2023/01/27 03:14:16;;;;;;;8.45;4.35;;;4.40;99.90;;;;;;5105269;27;20078;-69
2023/01/27 03:19:26;;;;;;;13.40;4.95;;;4.40;99.90;;;;;;5110634;27;20058;-70
2023/01/27 03:21:55;;;;;;;7.15;3.85;;;4.40;99.90;;;;;;5108052;27;20055;-69
2023/01/27 03:24:21;;;;;;;5.20;3.03;;;4.40;99.90;;;;;;5100125;27;20103;-67
2023/01/27 03:26:47;;;;;;;8.30;3.45;;;4.50;99.90;;;;;;5105529;27;20046;-68
2023/01/27 03:31:57;;;;;;;6.28;2.83;;;4.50;99.90;;;;;;5107063;27;20557;-67
2023/01/27 03:34:23;;;;;;;6.28;3.50;;;4.60;99.90;;;;;;5109253;27;20118;-68
2023/01/27 03:47:44;;;;;;;6.72;2.88;;;4.50;99.90;;;;;;5107255;27;20447;-67
2023/01/27 03:50:12;;;;;;;5.25;3.03;;;4.60;99.90;;;;;;5108571;27;20044;-68
2023/01/27 03:52:38;;;;;;;4.28;2.50;;;4.60;99.90;;;;;;5106221;27;20457;-69
2023/01/27 03:55:05;;;;;;;4.90;3.40;;;4.60;99.90;;;;;;5106997;27;20121;-66
2023/01/27 03:57:31;;;;;;;7.55;3.60;;;4.60;99.90;;;;;;5102218;27;20047;-67
2023/01/27 03:59:57;;;;;;;6.22;3.35;;;4.60;99.90;;;;;;5103241;27;20755;-67
2023/01/27 04:07:52;;;;;;;3.40;1.60;;;4.60;99.90;;;;;;5104025;27;20096;-70
2023/01/27 04:10:18;;;;;;;4.47;2.10;;;4.60;99.90;;;;;;5104881;27;20122;-68
2023/01/27 04:12:43;;;;;;;4.93;2.53;;;4.60;99.90;;;;;;5102810;27;20035;-69
2023/01/27 04:15:09;;;;;;;6.90;2.28;;;4.60;99.90;;;;;;5106321;27;20079;-67
2023/01/27 04:17:37;;;;;;;7.10;3.47;;;4.50;99.90;;;;;;5100569;27;20042;-70
2023/01/27 04:20:04;;;;;;;6.95;3.17;;;4.40;99.90;;;;;;5103634;27;20047;-67
2023/01/27 04:22:30;;;;;;;8.20;3.75;;;4.40;99.90;;;;;;5103508;27;20039;-68
2023/01/27 04:24:55;;;;;;;6.65;3.65;;;4.40;99.90;;;;;;5105840;27;20035;-68
2023/01/27 04:27:21;;;;;;;7.13;3.90;;;4.30;99.90;;;;;;5100008;27;20138;-67
2023/01/27 04:29:47;;;;;;;5.93;3.53;;;4.30;99.90;;;;;;5122694;27;20104;-70
2023/01/27 04:32:13;;;;;;;5.72;2.47;;;4.30;99.90;;;;;;5101802;27;20039;-69
2023/01/27 04:34:39;;;;;;;7.75;3.78;;;4.20;99.90;;;;;;5103508;27;20050;-68
2023/01/27 04:37:06;;;;;;;5.47;3.33;;;4.20;99.90;;;;;;5097894;27;20046;-68
2023/01/27 04:39:33;;;;;;;8.63;3.53;;;4.20;99.90;;;;;;5103441;28;20161;-70
2023/01/27 04:41:58;;;;;;;5.13;3.28;;;4.10;99.90;;;;;;5102823;27;20122;-67
2023/01/27 04:44:24;;;;;;;5.68;3.38;;;4.10;99.90;;;;;;5109876;27;20426;-70
2023/01/27 04:46:51;;;;;;;5.57;3.33;;;4.10;99.90;;;;;;5105155;27;20035;-68
2023/01/27 04:49:17;;;;;;;6.70;3.33;;;4.10;99.90;;;;;;5108587;28;20065;-70
2023/01/27 04:51:43;;;;;;;5.50;3.40;;;4.10;99.90;;;;;;5100277;27;20044;-68
2023/01/27 04:54:09;;;;;;;10.02;3.28;;;4.10;99.90;;;;;;5110502;27;20041;-72
2023/01/27 04:56:41;;;;;;;7.35;3.08;;;4.10;99.90;;;;;;5125336;27;20065;-69
2023/01/27 04:59:10;;;;;;;5.37;3.00;;;4.10;99.90;;;;;;5109111;28;20589;-69
2023/01/27 05:01:36;;;;;;;5.88;2.40;;;4.10;99.90;;;;;;5106972;27;20043;-67
2023/01/27 05:04:01;;;;;;;8.60;3.50;;;4.20;99.90;;;;;;5106255;28;20099;-69
2023/01/27 05:06:28;;;;;;;5.60;2.80;;;4.30;99.90;;;;;;5106736;28;20369;-71
2023/01/27 05:08:54;;;;;;;7.18;3.08;;;4.30;99.90;;;;;;5104765;28;20039;-69
2023/01/27 05:11:20;;;;;;;9.73;3.22;;;4.30;99.90;;;;;;5104853;27;20027;-68
2023/01/27 05:13:46;;;;;;;7.43;2.50;;;4.20;99.90;;;;;;5105852;28;20042;-67
2023/01/27 05:16:13;;;;;;;5.03;2.58;;;4.30;99.90;;;;;;5106153;28;20059;-68
2023/01/27 05:18:40;;;;;;;7.30;2.92;;;4.30;99.90;;;;;;5105127;28;20504;-70
2023/01/27 05:21:07;;;;;;;4.80;3.40;;;4.30;99.90;;;;;;5105196;28;20035;-70
2023/01/27 05:23:36;;;;;;;5.57;3.30;;;4.10;99.90;;;;;;5099046;28;20046;-68
2023/01/27 05:26:16;;;;;;;7.93;3.22;;;4.10;99.90;;;;;;5104290;27;20035;-71
2023/01/27 05:28:45;;;;;;;3.95;2.40;;;4.00;99.90;;;;;;5095730;28;20038;-71
2023/01/27 05:31:10;;;;;;;4.10;2.28;;;4.10;99.90;;;;;;5112068;28;20055;-70
2023/01/27 05:33:37;;;;;;;4.50;2.70;;;4.00;99.90;;;;;;5096713;28;20050;-70
2023/01/27 05:36:05;;;;;;;3.65;1.75;;;4.10;99.90;;;;;;5110730;28;20091;-71
2023/01/27 05:38:31;;;;;;;6.97;3.17;;;4.10;99.90;;;;;;5110044;28;20039;-71
2023/01/27 05:41:00;;;;;;;6.00;3.05;;;4.10;99.90;;;;;;5109129;28;20135;-70
2023/01/27 05:43:30;;;;;;;5.40;3.15;;;4.10;99.90;;;;;;5094956;28;20043;-68
2023/01/27 05:46:17;;;;;;;6.97;3.05;;;4.10;99.90;;;;;;5106227;27;20121;-71
2023/01/27 05:48:47;;;;;;;6.07;3.00;;;4.10;99.90;;;;;;5105558;27;20075;-72
2023/01/27 05:51:14;;;;;;;8.75;3.20;;;4.10;99.90;;;;;;5108853;27;20051;-70
2023/01/27 05:53:40;;;;;;;6.80;2.72;;;4.10;99.90;;;;;;5127846;27;20047;-71
2023/01/27 05:56:09;;;;;;;7.15;2.92;;;4.10;99.90;;;;;;5105854;27;20035;-72
2023/01/27 05:58:35;;;;;;;6.13;3.30;;;4.10;99.90;;;;;;5103924;27;20051;-69
2023/01/27 06:01:28;;;;;;;6.78;3.33;;;4.10;99.90;;;;;;5107388;27;20501;-71
2023/01/27 06:03:54;;;;;;;5.75;2.88;;;4.00;99.90;;;;;;5102103;27;20051;-71
2023/01/27 06:06:23;;;;;;;8.77;3.10;;;4.10;99.90;;;;;;5105491;27;20122;-68
2023/01/27 06:08:49;;;;;;;6.60;2.88;;;4.00;99.90;;;;;;5102862;27;20031;-71
2023/01/27 06:11:16;;;;;;;6.07;3.05;;;4.00;99.90;;;;;;5108363;27;20477;-72
2023/01/27 06:13:42;;;;;;;5.88;3.20;;;4.00;99.90;;;;;;5115392;27;20070;-70
2023/01/27 06:16:10;;;;;;;8.00;3.00;;;4.00;99.90;;;;;;5104786;27;20039;-71
2023/01/27 06:18:37;;;;;;;7.68;3.38;;;4.00;99.90;;;;;;5103631;27;20086;-71
2023/01/27 06:21:05;;;;;;;6.03;3.00;;;4.00;99.90;;;;;;5111558;27;20172;-71
2023/01/27 06:23:31;;;;;;;8.50;3.70;;;4.00;99.90;;;;;;5102588;27;20031;-72
2023/01/27 06:26:02;;;;;;;5.38;3.03;;;4.00;99.90;;;;;;5107090;27;20267;-68
2023/01/27 06:28:28;;;;;;;5.70;2.80;;;3.90;99.90;;;;;;5108819;27;20054;-70
2023/01/27 06:30:53;;;;;;;7.38;2.90;;;4.00;99.90;;;;;;5109384;27;20507;-71
2023/01/27 06:33:20;;;;;;;6.30;2.55;;;4.00;99.90;;;;;;5108088;27;20504;-70
2023/01/27 06:35:46;;;;;;;6.30;2.47;;;4.00;99.90;;;;;;5106366;27;20050;-68
2023/01/27 06:38:14;;;;;;;5.07;3.22;;;4.00;99.90;;;;;;5105072;27;20043;-72
2023/01/27 06:40:40;;;;;;;6.65;3.17;;;4.00;99.90;;;;;;5118723;27;20433;-72
2023/01/27 06:43:11;;;;;;;5.07;1.92;;;4.00;99.90;;;;;;5103040;28;20056;-70
2023/01/27 06:45:37;;;;;;;6.68;2.67;;;4.00;99.90;;;;;;5095751;27;20042;-70
2023/01/27 06:48:04;;;;;;;6.18;2.88;;;4.10;99.90;;;;;;5115319;27;20435;-71
2023/01/27 06:50:29;;;;;;;8.75;3.72;;;4.10;99.90;;;;;;5113757;27;20111;-70
2023/01/27 06:53:04;;;;;;;7.75;2.40;;;4.00;99.90;;;;;;5114288;27;20096;-69
2023/01/27 06:55:30;;;;;;;5.47;2.67;;;4.00;99.90;;;;;;5115523;27;20035;-71
2023/01/27 06:57:56;;;;;;;4.90;3.08;;;4.00;99.90;;;;;;5105209;28;20053;-71
2023/01/27 07:00:22;;;;;;;4.53;3.10;;;4.00;99.90;;;;;;5094829;28;20035;-70
2023/01/27 07:02:47;;;;;;;13.68;3.13;;;3.90;99.90;;;;;;5108842;27;20460;-68
2023/01/27 07:05:14;;;;;;;6.00;2.63;;;3.90;99.90;;;;;;5114844;27;20574;-71
2023/01/27 07:07:40;;;;;;;6.97;2.97;;;4.00;99.90;;;;;;5098901;27;20394;-70
2023/01/27 07:10:06;;;;;;;6.95;3.80;;;3.90;99.90;;;;;;5094899;28;20035;-71
2023/01/27 07:12:36;;;;;;;9.98;3.13;;;3.90;99.90;;;;;;5097765;27;20039;-72
2023/01/27 07:15:06;;;;;;;7.78;3.20;;;4.00;99.90;;;;;;5095836;28;20428;-72
2023/01/27 07:17:32;;;;;;;10.02;3.55;;;3.90;99.90;;;;;;5107163;27;20038;-72
2023/01/27 07:19:58;;;;;;;11.93;3.97;;;3.90;99.90;;;;;;5103915;27;20042;-72
2023/01/27 07:22:24;;;;;;;10.70;4.45;;;3.90;99.90;;;;;;5100398;27;20042;-73
2023/01/27 07:24:50;;;;;;;11.27;4.10;;;3.90;99.90;;;;;;5105869;27;20038;-76
2023/01/27 07:27:15;;;;;;;8.25;3.58;;;3.90;99.90;;;;;;5104356;27;20043;-74
2023/01/27 07:29:41;;;;;;;7.53;3.78;;;3.90;99.90;;;;;;5111910;28;20035;-74
2023/01/27 07:32:06;;;;;;;7.80;3.55;;;3.90;99.90;;;;;;5106408;27;20443;-75
2023/01/27 07:34:32;;;;;;;9.95;4.35;;;3.80;99.90;;;;;;5113235;27;20062;-75
2023/01/27 07:36:58;;;;;;;6.63;4.03;;;3.70;99.90;;;;;;5108521;27;20393;-74
2023/01/27 07:39:25;;;;;;;5.90;3.50;;;3.70;99.90;;;;;;5110975;27;20067;-75
2023/01/27 07:41:51;;;;;;;10.07;3.70;;;3.70;99.90;;;;;;5111396;27;20047;-75
2023/01/27 07:44:17;;;;;;;9.15;3.45;;;3.80;99.90;;;;;;5094749;27;20154;-75
2023/01/27 07:46:43;;;;;;;10.48;3.85;;;3.80;99.90;;;;;;5115025;27;20525;-76
2023/01/27 07:49:11;;;;;;;9.02;3.63;;;3.70;99.90;;;;;;5096708;28;20513;-73
2023/01/27 07:51:36;;;;;;;8.02;3.45;;;3.70;99.90;;;;;;5083380;27;20031;-75
2023/01/27 07:54:03;;;;;;;7.75;3.05;;;3.70;99.90;;;;;;5107029;27;20064;-75
2023/01/27 07:56:29;;;;;;;6.60;3.45;;;3.70;99.90;;;;;;5102029;28;20090;-74
2023/01/27 07:58:54;;;;;;;8.50;3.05;;;3.60;99.90;;;;;;5114985;27;20074;-74
2023/01/27 08:01:20;;;;;;;13.13;3.15;;;3.60;99.90;;;;;;5108625;27;20049;-74
2023/01/27 08:03:46;;;;;;;7.32;3.78;;;3.60;99.90;;;;;;5126229;27;20047;-75
2023/01/27 08:06:12;;;;;;;7.72;3.38;;;3.60;99.90;;;;;;5107587;27;20027;-74
2023/01/27 08:08:37;;;;;;;9.75;3.97;;;3.60;99.90;;;;;;5107123;27;20166;-75
2023/01/27 08:11:06;;;;;;;11.32;3.17;;;3.60;99.90;;;;;;5107543;27;20035;-74
2023/01/27 08:13:33;;;;;;;6.75;2.63;;;3.60;99.90;;;;;;5107551;27;20055;-74
2023/01/27 08:15:59;;;;;;;5.97;3.30;;;3.80;99.90;;;;;;5104730;27;20039;-74
2023/01/27 08:18:26;;;;;;;6.47;2.92;;;3.80;99.90;;;;;;5104214;27;20046;-73
2023/01/27 08:20:53;;;;;;;7.53;2.60;;;3.90;99.90;;;;;;5109054;27;20457;-74
2023/01/27 08:23:20;;;;;;;7.53;3.30;;;4.00;99.90;;;;;;5091002;27;20046;-73
2023/01/27 08:25:50;;;;;;;5.13;2.22;;;4.00;99.90;;;;;;5108640;27;20046;-74
2023/01/27 08:28:17;;;;;;;5.75;2.63;;;4.10;99.90;;;;;;5107488;27;20038;-74
2023/01/27 08:30:43;;;;;;;8.35;3.30;;;4.10;99.90;;;;;;5107228;27;20039;-73
2023/01/27 08:33:08;;;;;;;7.32;2.38;;;4.00;99.90;;;;;;5104072;27;20401;-73
2023/01/27 08:35:35;;;;;;;5.63;3.00;;;4.10;99.90;;;;;;5100821;27;20401;-76
2023/01/27 08:38:01;;;;;;;7.07;3.03;;;4.20;99.90;;;;;;5104536;27;20058;-74
2023/01/27 08:40:27;;;;;;;9.05;3.78;;;4.20;99.90;;;;;;5114035;27;20043;-73
2023/01/27 08:42:52;;;;;;;11.10;3.95;;;4.20;99.90;;;;;;5108635;27;20048;-75
2023/01/27 08:45:18;;;;;;;4.40;2.78;;;4.30;99.90;;;;;;5107895;27;20458;-75
2023/01/27 08:47:44;;;;;;;6.25;2.35;;;4.30;99.90;;;;;;5093374;27;20477;-73
2023/01/27 08:50:10;;;;;;;7.95;3.10;;;4.40;99.90;;;;;;5110331;28;20038;-73
2023/01/27 08:52:36;;;;;;;7.45;3.17;;;4.40;99.90;;;;;;5108941;27;20046;-74
2023/01/27 08:55:01;;;;;;;5.53;1.67;;;4.40;99.90;;;;;;5111963;27;20035;-73
2023/01/27 08:57:31;;;;;;;7.82;2.95;;;4.40;99.90;;;;;;5111065;27;20533;-71
2023/01/27 08:59:57;;;;;;;6.97;3.33;;;4.40;99.90;;;;;;5108080;27;20037;-71
2023/01/27 09:02:23;;;;;;;8.25;3.40;;;4.40;99.90;;;;;;5092588;28;20478;-73
2023/01/27 09:04:49;;;;;;;9.07;3.03;;;4.30;99.90;;;;;;5096142;28;20059;-73
2023/01/27 09:07:16;;;;;;;14.82;2.35;;;4.40;99.90;;;;;;5113900;28;20043;-75
2023/01/27 09:09:44;;;;;;;4.55;2.20;;;4.40;99.90;;;;;;5111430;28;20034;-74
2023/01/27 09:12:10;;;;;;;4.72;2.63;;;4.50;99.90;;;;;;5113583;28;20039;-74
2023/01/27 09:14:35;;;;;;;7.47;3.42;;;4.50;99.90;;;;;;5098279;28;20035;-74
2023/01/27 09:17:01;;;;;;;6.57;3.00;;;4.50;99.90;;;;;;5093810;28;20068;-73
2023/01/27 09:19:27;;;;;;;8.35;3.85;;;4.40;99.90;;;;;;5104953;28;20035;-74
2023/01/27 09:21:52;;;;;;;9.63;3.47;;;4.40;99.90;;;;;;5102200;27;20042;-72
2023/01/27 09:24:19;;;;;;;9.55;3.70;;;4.50;99.90;;;;;;5099238;27;20162;-74
2023/01/27 09:26:45;;;;;;;16.70;3.83;;;4.50;99.90;;;;;;5117935;27;20035;-73
2023/01/27 09:29:11;;;;;;;6.07;3.10;;;4.50;99.90;;;;;;5125054;27;20039;-71
2023/01/27 09:31:36;;;;;;;8.13;3.78;;;4.50;99.90;;;;;;5096785;28;20046;-74
2023/01/27 09:34:03;;;;;;;15.95;4.63;;;4.60;99.90;;;;;;5107661;27;20409;-73
2023/01/27 09:36:31;;;;;;;10.50;3.50;;;4.60;99.90;;;;;;5116821;27;20035;-75
2023/01/27 09:39:04;;;;;;;5.43;3.08;;;4.60;99.90;;;;;;5117019;27;20047;-73
2023/01/27 09:41:51;;;;;;;6.53;3.13;;;4.70;99.90;;;;;;5117463;27;20039;-74
2023/01/27 09:44:41;;;;;;;6.20;3.38;;;4.70;99.90;;;;;;5114888;27;20130;-73
2023/01/27 09:47:22;;;;;;;9.77;4.95;;;4.70;99.90;;;;;;5102143;27;20594;-74
2023/01/27 09:49:57;;;;;;;8.50;4.43;;;4.70;99.90;;;;;;5116242;27;20039;-73
2023/01/27 09:52:52;;;;;;;11.43;4.63;;;4.70;99.90;;;;;;5116889;27;20511;-73
2023/01/27 09:55:51;;;;;;;7.22;4.07;;;4.70;99.90;;;;;;5097351;28;20375;-72
2023/01/27 09:58:40;;;;;;;5.68;3.08;;;4.80;99.90;;;;;;5097153;27;20071;-73
2023/01/27 10:01:30;;;;;;;7.93;3.80;;;4.90;99.90;;;;;;5097074;28;20047;-73
2023/01/27 10:04:04;;;;;;;9.85;4.35;;;4.90;99.90;;;;;;5105705;27;20051;-73
2023/01/27 10:06:57;;;;;;;9.40;4.50;;;4.90;99.90;;;;;;5117276;27;20092;-73
2023/01/27 10:09:54;;;;;;;8.70;4.30;;;4.90;99.90;;;;;;5104243;28;20131;-74
2023/01/27 10:12:53;;;;;;;9.52;4.57;;;4.90;99.90;;;;;;5078510;28;20468;-72
2023/01/27 10:15:28;;;;;;;12.10;4.47;;;5.00;99.90;;;;;;5095803;28;20036;-72
2023/01/27 10:18:12;;;;;;;8.02;3.25;;;5.00;99.90;;;;;;5113818;28;20043;-72
2023/01/27 10:21:02;;;;;;;6.93;4.00;;;5.10;99.90;;;;;;5099770;28;20043;-74
2023/01/27 10:23:48;;;;;;;8.00;4.40;;;5.00;99.90;;;;;;5106988;28;20039;-74
2023/01/27 10:26:34;;;;;;;8.63;4.30;;;5.00;99.90;;;;;;5115426;28;20039;-72
2023/01/27 10:29:37;;;;;;;10.07;4.25;;;5.00;99.90;;;;;;5106849;28;20036;-75
2023/01/27 10:32:44;;;;;;;8.13;4.32;;;5.10;99.90;;;;;;5094028;28;20562;-72
2023/01/27 10:35:20;;;;;;;7.97;3.63;;;5.10;99.90;;;;;;5075905;28;20096;-73
2023/01/27 10:37:52;;;;;;;6.57;3.95;;;5.10;99.90;;;;;;5110556;27;20585;-75
2023/01/27 10:40:43;;;;;;;8.38;3.72;;;5.20;99.90;;;;;;5100583;28;20104;-74
2023/01/27 10:43:23;;;;;;;5.15;3.17;;;5.10;99.90;;;;;;5105662;28;20066;-75
2023/01/27 10:46:24;;;;;;;7.78;4.00;;;5.10;99.90;;;;;;5080156;27;20363;-73
2023/01/27 10:48:59;;;;;;;6.90;3.25;;;5.10;99.90;;;;;;5102189;27;20678;-73
2023/01/27 10:51:24;;;;;;;8.23;3.50;;;4.90;99.90;;;;;;5116685;28;20046;-72
2023/01/27 10:54:08;;;;;;;5.68;3.60;;;4.80;99.90;;;;;;5112117;28;20036;-73
2023/01/27 10:57:03;;;;;;;5.68;3.70;;;4.70;99.90;;;;;;5107464;28;20480;-72
2023/01/27 10:59:42;;;;;;;5.75;3.90;;;4.70;99.90;;;;;;5110843;28;20054;-72
2023/01/27 11:02:08;;;;;;;6.28;2.85;;;4.60;99.90;;;;;;5112473;28;20401;-73
2023/01/27 11:04:45;;;;;;;5.82;3.05;;;4.60;99.90;;;;;;5112108;28;20046;-72
2023/01/27 11:07:18;;;;;;;5.07;3.22;;;4.60;99.90;;;;;;5097990;28;20046;-71
2023/01/27 11:10:12;;;;;;;5.88;2.97;;;4.60;99.90;;;;;;5098968;27;20078;-70
2023/01/27 11:12:42;;;;;;;6.75;3.17;;;4.50;99.90;;;;;;5088460;27;20051;-70
2023/01/27 11:15:31;;;;;;;6.47;3.28;;;4.50;99.90;;;;;;5062729;27;1104027;-75
2023/01/27 11:18:09;;;;;;;7.22;3.50;;;4.50;99.90;;;;;;5092052;27;20051;-72
2023/01/27 11:20:40;;;;;;;6.93;3.60;;;4.50;99.90;;;;;;5107410;27;20338;-71
2023/01/27 11:23:09;;;;;;;5.35;3.38;;;4.50;99.90;;;;;;5087818;27;20494;-72
2023/01/27 11:25:53;;;;;;;5.32;3.42;;;4.40;99.90;;;;;;5111046;27;20034;-74
2023/01/27 11:28:36;;;;;;;6.32;3.00;;;4.40;99.90;;;;;;5109600;28;20039;-69
2023/01/27 11:31:34;;;;;;;6.32;3.05;;;4.40;99.90;;;;;;5108399;27;20440;-73
2023/01/27 11:34:04;;;;;;;4.43;2.85;;;4.40;99.90;;;;;;5105373;27;20051;-75
2023/01/27 11:36:32;;;;;;;7.95;2.67;;;4.40;99.90;;;;;;5110010;27;20035;-68
2023/01/27 11:38:57;;;;;;;5.30;2.90;;;4.40;99.90;;;;;;5101415;27;20034;-70
2023/01/27 11:41:24;;;;;;;4.68;3.00;;;4.40;99.90;;;;;;5108727;27;20039;-76
2023/01/27 11:43:50;;;;;;;4.28;2.85;;;4.40;99.90;;;;;;5108570;27;20043;-70
2023/01/27 11:46:22;;;;;;;4.95;3.22;;;4.40;99.90;;;;;;5107503;27;20035;-72
2023/01/27 11:48:53;;;;;;;5.13;3.22;;;4.40;99.90;;;;;;5103434;27;20035;-73
2023/01/27 11:51:27;;;;;;;4.82;3.35;;;4.40;99.90;;;;;;5104093;27;20102;-74
2023/01/27 11:54:16;;;;;;;6.28;3.50;;;4.40;99.90;;;;;;5105304;27;20039;-75
2023/01/27 11:56:45;;;;;;;6.88;3.40;;;4.40;99.90;;;;;;5104703;27;20067;-69
2023/01/27 11:59:26;;;;;;;5.85;3.45;;;4.40;99.90;;;;;;5102277;27;20043;-76
2023/01/27 12:02:14;;;;;;;5.30;3.33;;;4.40;99.90;;;;;;5108393;27;20131;-75
2023/01/27 12:04:48;;;;;;;6.35;3.30;;;4.40;99.90;;;;;;5106927;27;20042;-75
2023/01/27 12:07:40;;;;;;;6.88;3.28;;;4.40;99.90;;;;;;5105819;27;20489;-76
2023/01/27 12:10:34;;;;;;;6.15;3.28;;;4.40;99.90;;;;;;5094278;27;20470;-72
2023/01/27 12:13:07;;;;;;;7.53;3.55;;;4.40;99.90;;;;;;5096242;27;20580;-73
2023/01/27 12:15:33;;;;;;;5.80;3.15;;;4.40;99.90;;;;;;5104678;27;20401;-75
2023/01/27 12:18:11;;;;;;;5.50;3.33;;;4.40;99.90;;;;;;5105348;27;20042;-74
2023/01/27 12:20:42;;;;;;;4.45;2.95;;;4.40;99.90;;;;;;5107022;27;20126;-74
2023/01/27 12:23:26;;;;;;;5.25;2.85;;;4.40;99.90;;;;;;5109174;27;20378;-75
2023/01/27 12:26:01;;;;;;;4.70;2.60;;;4.50;99.90;;;;;;5110157;27;20039;-75
2023/01/27 12:28:36;;;;;;;6.90;3.60;;;4.60;99.90;;;;;;5103031;27;20052;-72
2023/01/27 12:31:29;;;;;;;3.85;2.28;;;4.60;99.90;;;;;;5098339;27;20039;-74
2023/01/27 12:34:02;;;;;;;5.43;3.28;;;4.60;99.90;;;;;;5096587;27;20040;-75
2023/01/27 12:36:28;;;;;;;5.47;3.03;;;4.60;99.90;;;;;;5109275;27;20039;-72
2023/01/27 12:39:00;;;;;;;5.85;2.78;;;4.60;99.90;;;;;;5103431;27;20065;-74
2023/01/27 12:41:33;;;;;;;5.35;2.33;;;4.60;99.90;;;;;;5108934;27;20446;-75
2023/01/27 12:44:15;;;;;;;3.53;2.38;;;4.60;99.90;;;;;;5109177;27;20046;-70
2023/01/27 12:47:01;;;;;;;5.13;3.03;;;4.60;99.90;;;;;;5102309;27;20389;-73
2023/01/27 12:49:36;;;;;;;4.03;2.40;;;4.50;99.90;;;;;;5112201;27;20425;-70
2023/01/27 12:52:07;;;;;;;4.47;2.70;;;4.50;99.90;;;;;;5104019;27;20520;-72
2023/01/27 12:54:33;;;;;;;5.63;2.85;;;4.50;99.90;;;;;;5104341;27;20044;-73
2023/01/27 12:57:09;;;;;;;3.90;2.15;;;4.50;99.90;;;;;;5112967;27;20070;-73
2023/01/27 12:59:48;;;;;;;3.58;2.67;;;4.50;99.90;;;;;;5104154;28;20375;-69
2023/01/27 13:02:22;;;;;;;3.20;2.20;;;4.50;99.90;;;;;;5110664;27;20582;-74
2023/01/27 13:04:52;;;;;;;5.45;2.60;;;4.50;99.90;;;;;;5098766;28;20049;-73
2023/01/27 13:07:23;;;;;;;3.95;2.40;;;4.50;99.90;;;;;;5100396;28;20382;-74
2023/01/27 13:09:54;;;;;;;5.00;2.47;;;4.50;99.90;;;;;;5102682;28;20032;-73
2023/01/27 13:12:24;;;;;;;4.45;2.70;;;4.60;99.90;;;;;;5105081;28;20069;-74
2023/01/27 13:14:53;;;;;;;2.90;2.20;;;4.60;99.90;;;;;;5103453;28;20046;-75
2023/01/27 13:17:41;;;;;;;3.40;2.00;;;4.60;99.90;;;;;;5105233;28;20357;-73
2023/01/27 13:20:54;;;;;;;3.72;2.47;;;4.60;99.90;;;;;;5102448;28;20443;-72
2023/01/27 13:23:25;;;;;;;3.78;2.42;;;4.60;99.90;;;;;;5066427;28;20149;-76
2023/01/27 13:26:03;;;;;;;3.33;2.40;;;4.50;99.90;;;;;;5102488;28;20035;-74
2023/01/27 13:28:58;;;;;;;2.65;1.80;;;4.50;99.90;;;;;;5089643;28;20031;-75
2023/01/27 13:32:01;;;;;;;3.85;2.40;;;4.60;99.90;;;;;;5104640;28;20039;-76
2023/01/27 13:34:45;;;;;;;4.38;2.90;;;4.70;99.90;;;;;;5100033;28;20041;-74
2023/01/27 13:37:30;;;;;;;4.75;2.65;;;4.60;99.90;;;;;;5102081;28;20039;-71
2023/01/27 13:40:04;;;;;;;3.78;2.53;;;4.50;99.90;;;;;;5103059;28;20039;-73
2023/01/27 13:43:01;;;;;;;3.83;2.40;;;4.50;99.90;;;;;;5105479;28;20145;-76
2023/01/27 13:46:02;;;;;;;2.97;2.30;;;4.40;99.90;;;;;;5103588;28;20083;-75
2023/01/27 13:48:32;;;;;;;3.55;2.10;;;4.40;99.90;;;;;;5104984;28;20039;-77